Archival Weather

Fayette Rgnl Air Cntr Arp

Fayette Rgnl Air Cntr Arp, Texas (K3T5)

Report from: Thursday, September 22, 2022 8:15 AM CDT
Current time: Saturday, February 4, 2023 12:45 AM CST

Current weather
Weather history
Weather forecast

Temperature21.2°C (70.2°F)
Dew point21.1°C (70.0°F)
Winds Calm
Visibility10 mi. (16.1 km)
Clouds Sky clear
Altimeter30.01 in.Hg (1016 mB)
Relative humidity99 %
Density altitude960 ft. (293 m)
Remarks Fully automated report
Automated weather observing station with precipitation discriminator
Flight conditions Visual Meteorological Conditions
Raw dataK3T5 221315Z AUTO 00000KT 10SM CLR 21/21 A3001 RMK AO2 T02120211
An unhandled exception has occurred. See browser dev tools for details. Reload 🗙